Airfield :
LOGIN :

Register | Disclaimer

   EN    FR    IT 

 










Legend :    VFR   Marginal VFR   IFR   Intensive IFR   Very Intensive IFR
Visi :
Ceiling :
>= 8 km
>= 3000ft
5 to 8 km
1000 to 3000 ft
1500m to 5 km
500 to 1000 ft
800 to 1500m
200 to 500 ft
< 800m
< 200 ft
Symbols :   Thunderstorms  Fog  Heavy snow  Heavy precipitations  Wind > 20 kt
SIGMETs :     Misc.  Thunderstorms  Icing  Turbulence  Mountain Waves  Volcanic Ashes






- Airport Elevation : 160 ft
- IATA code : LRT


LFRH - Lorient Lann Bihoue

CURRENT METAR :
  • 230200Z AUTO 12002KT 1100 0600 R25/1300U R07/P2000 BCFG VV/// 09/09 Q1011 TEMPO 0300

EXPIRED METARs :
  • 230130Z AUTO 13004KT 1800 0900 R25/1100U R07/1700D BCFG VV/// 10/10 Q1012 TEMPO 0300
  • 230100Z AUTO 10002KT 1800 0700 R25/0900U R07/1000U BCFG VV/// 11/11 Q1012 TEMPO 0300
  • 230030Z AUTO 02002KT 9999 0600 R25/P2000 R07/P2000 BCFG FEW004 BKN064 11/10 Q1012 TEMPO 0300 BECMG VV///
  • 230000Z AUTO 08002KT 1200 0750 R25/1400D R07/1300D BCFG FEW001 OVC066 10/10 Q1012 TEMPO 0300 BECMG VV///
  • 222330Z AUTO 07001KT 0800 0700 R25/1100U R07/1200D FG VV/// 11/11 Q1012 TEMPO 0300

TAF TAF LFRH
Valid from the 23 at 00:00 until the 24 at 00:00 UTC


222300Z 2300/2324 16003KT 0500 FG VV///
PROB40 2301/2304 0300
BECMG 2304/2306 9999 NSW BKN015
TEMPO 2307/2310 4900 -RA BKN008
TEMPO 2314/2317 23010G25KT 4900 -SHRA SCT015TCU



MET'MAP, your aeronautical weather chart ! - Copyright ORBIFLY December 2007 - Disclaimer

ORBIFLY MET'MAP TEAM :

Programming & Development : Alexandra Zaïnal
Concept & original design : Baudouin d'Aumeries
Assistance for programming : Marc-Olivier Méhu
Technical & hardware support : Manuel Goepfert

Contact : metmap@orbifly.com




SOURCES & CREDITS :

   NOAA